Time;durP1;ratioP1;P1;durP2;ratioP2;P2;SDS_P1;SDS_P2;PMS_P1;PMS_P2;Temp;Humidity;BMP_temperature;BMP_pressure;BME280_temperature;BME280_humidity;BME280_pressure;Samples;Min_cycle;Max_cycle;Signal;HPM_P1;HPM_P2
2022/08/10 00:02:20;;;;;;;6.07;2.15;;;20.50;41.90;;;;;;4995105;28;20064;-70
2022/08/10 00:04:46;;;;;;;3.90;2.00;;;20.50;42.00;;;;;;4997122;28;20065;-71
2022/08/10 00:07:11;;;;;;;2.83;1.88;;;20.40;42.00;;;;;;5001743;28;20061;-71
2022/08/10 00:09:37;;;;;;;4.70;1.75;;;20.40;42.10;;;;;;4996161;28;20083;-70
2022/08/10 00:12:03;;;;;;;3.35;2.05;;;20.40;42.20;;;;;;5003016;28;20526;-71
2022/08/10 00:14:28;;;;;;;3.17;2.10;;;20.30;42.30;;;;;;4995421;28;20522;-71
2022/08/10 00:16:54;;;;;;;3.05;1.83;;;20.30;42.30;;;;;;4980209;28;20046;-70
2022/08/10 00:19:19;;;;;;;1.80;1.63;;;20.20;42.40;;;;;;5004653;28;20034;-71
2022/08/10 00:21:45;;;;;;;2.00;1.60;;;20.20;42.50;;;;;;5016082;28;20029;-71
2022/08/10 00:24:11;;;;;;;1.75;1.50;;;20.20;42.60;;;;;;5016522;28;20047;-70
2022/08/10 00:26:36;;;;;;;2.58;1.85;;;20.10;42.60;;;;;;5016944;28;20482;-71
2022/08/10 00:29:02;;;;;;;3.28;2.00;;;20.10;42.80;;;;;;5014337;28;20885;-71
2022/08/10 00:31:27;;;;;;;2.95;1.85;;;20.10;42.80;;;;;;5014525;28;20034;-71
2022/08/10 00:33:53;;;;;;;2.55;1.90;;;20.00;42.90;;;;;;5014369;28;20041;-72
2022/08/10 00:36:18;;;;;;;1.88;1.70;;;20.00;43.00;;;;;;5014533;28;20748;-72
2022/08/10 00:38:44;;;;;;;2.28;1.75;;;19.90;43.00;;;;;;5016900;28;20029;-70
2022/08/10 00:41:09;;;;;;;2.05;1.83;;;19.90;43.10;;;;;;5016432;28;20037;-70
2022/08/10 00:43:35;;;;;;;3.17;1.77;;;19.90;43.30;;;;;;4966942;28;20039;-71
2022/08/10 00:46:00;;;;;;;2.42;1.85;;;19.80;43.70;;;;;;5000117;28;20073;-70
2022/08/10 00:48:28;;;;;;;2.25;1.60;;;19.80;43.40;;;;;;4996707;28;20091;-70
2022/08/10 00:50:53;;;;;;;3.03;2.13;;;19.80;43.50;;;;;;4997740;28;20100;-71
2022/08/10 00:53:19;;;;;;;2.20;1.70;;;19.70;43.50;;;;;;4965378;28;20030;-71
2022/08/10 00:55:44;;;;;;;5.68;2.05;;;19.70;43.70;;;;;;4984750;28;20177;-70
2022/08/10 00:58:10;;;;;;;3.40;1.80;;;19.70;43.80;;;;;;4999226;28;20041;-70
2022/08/10 01:00:35;;;;;;;3.35;1.63;;;19.60;43.80;;;;;;4965316;28;20038;-70
2022/08/10 01:03:01;;;;;;;2.22;2.05;;;19.60;43.90;;;;;;4999686;28;20143;-71
2022/08/10 01:05:27;;;;;;;3.05;1.83;;;19.50;44.00;;;;;;4997700;28;21838;-70
2022/08/10 01:07:56;;;;;;;1.83;1.73;;;19.50;44.10;;;;;;4999522;28;20038;-71
2022/08/10 01:10:25;;;;;;;1.80;1.67;;;19.50;44.20;;;;;;4997437;28;20044;-71
2022/08/10 01:13:05;;;;;;;5.57;1.73;;;19.40;44.30;;;;;;4996272;28;20042;-71
2022/08/10 01:15:38;;;;;;;4.40;1.83;;;19.40;44.40;;;;;;4984072;28;20042;-70
2022/08/10 01:18:20;;;;;;;1.92;1.83;;;19.40;44.40;;;;;;4977238;28;20045;-71
2022/08/10 01:21:14;;;;;;;3.33;1.80;;;19.30;44.70;;;;;;4974280;28;20034;-71
2022/08/10 01:23:58;;;;;;;1.90;1.60;;;19.30;44.80;;;;;;4998019;28;20084;-71
2022/08/10 01:26:32;;;;;;;2.58;1.77;;;19.20;44.60;;;;;;5001440;28;20049;-70
2022/08/10 01:29:29;;;;;;;4.70;1.90;;;19.20;44.90;;;;;;5000234;28;20111;-71
2022/08/10 01:31:59;;;;;;;2.22;2.03;;;19.10;45.20;;;;;;4998894;28;20084;-70
2022/08/10 01:34:31;;;;;;;3.03;2.13;;;19.10;44.90;;;;;;4997638;28;20445;-71
2022/08/10 01:37:00;;;;;;;3.55;2.03;;;19.00;45.00;;;;;;5003936;28;21613;-72
2022/08/10 01:39:29;;;;;;;2.17;1.98;;;19.00;45.20;;;;;;4996067;28;20141;-72
2022/08/10 01:41:56;;;;;;;2.25;1.73;;;18.90;45.20;;;;;;5003769;28;20046;-72
2022/08/10 01:44:31;;;;;;;4.80;2.42;;;18.90;45.30;;;;;;4983444;28;20040;-72
2022/08/10 01:49:54;;;;;;;4.90;2.08;;;18.80;45.70;;;;;;4999718;28;20052;-72
2022/08/10 01:52:20;;;;;;;1.83;1.60;;;18.80;45.70;;;;;;4981289;28;20037;-71
2022/08/10 01:54:46;;;;;;;2.08;1.88;;;18.70;45.70;;;;;;4981635;28;20050;-72
2022/08/10 01:57:11;;;;;;;3.45;1.70;;;18.70;45.80;;;;;;4996059;28;20041;-72
2022/08/10 01:59:38;;;;;;;2.00;1.70;;;18.60;45.90;;;;;;4981441;28;20076;-72
2022/08/10 02:02:10;;;;;;;2.90;1.60;;;18.60;46.00;;;;;;4968351;28;20049;-73
2022/08/10 02:04:37;;;;;;;2.70;1.95;;;18.60;46.40;;;;;;4993390;28;20042;-72
2022/08/10 02:07:03;;;;;;;4.25;1.83;;;18.50;46.40;;;;;;4965244;28;20060;-74
2022/08/10 02:09:35;;;;;;;3.55;2.30;;;18.50;46.40;;;;;;4985755;28;20053;-73
2022/08/10 02:12:05;;;;;;;2.20;1.77;;;18.50;46.60;;;;;;4985463;28;20828;-74
2022/08/10 02:14:32;;;;;;;4.93;2.10;;;18.40;46.50;;;;;;4997447;28;20061;-73
2022/08/10 02:16:57;;;;;;;4.57;1.95;;;18.40;46.70;;;;;;4982625;28;20159;-73
2022/08/10 02:19:23;;;;;;;2.70;2.00;;;18.40;46.80;;;;;;4997495;28;20756;-72
2022/08/10 02:21:49;;;;;;;3.53;2.05;;;18.30;46.80;;;;;;4982327;28;20514;-73
2022/08/10 02:24:15;;;;;;;2.55;1.88;;;18.30;46.90;;;;;;4981964;28;20065;-72
2022/08/10 02:26:43;;;;;;;2.58;2.08;;;18.30;47.00;;;;;;4984253;28;20053;-72
2022/08/10 02:29:10;;;;;;;3.15;2.10;;;18.20;47.10;;;;;;4997751;28;20038;-73
2022/08/10 02:31:36;;;;;;;2.40;2.10;;;18.20;47.10;;;;;;4982154;28;20042;-73
2022/08/10 02:34:01;;;;;;;2.20;2.00;;;18.20;47.30;;;;;;4983438;28;20045;-73
2022/08/10 02:36:29;;;;;;;3.30;2.08;;;18.10;47.30;;;;;;4993733;28;20070;-73
2022/08/10 02:38:56;;;;;;;2.03;1.52;;;18.10;47.40;;;;;;4981387;28;20398;-72
2022/08/10 02:41:39;;;;;;;2.45;2.00;;;18.10;47.50;;;;;;4981613;28;20057;-73
2022/08/10 02:44:10;;;;;;;2.38;1.77;;;18.00;47.50;;;;;;5002556;28;20132;-72
2022/08/10 02:46:46;;;;;;;2.10;1.90;;;18.00;47.70;;;;;;5001338;28;20045;-73
2022/08/10 02:49:20;;;;;;;2.20;1.70;;;17.90;47.70;;;;;;4986253;28;20061;-73
2022/08/10 02:52:19;;;;;;;3.42;2.10;;;17.90;48.00;;;;;;4990173;28;20033;-73
2022/08/10 02:54:51;;;;;;;2.35;1.90;;;17.90;49.00;;;;;;4979918;28;20562;-73
2022/08/10 02:57:21;;;;;;;;;;;17.80;48.00;;;;;;4985754;28;20052;-73
2022/08/10 02:59:48;;;;;;;3.13;1.73;;;17.80;47.80;;;;;;4986180;28;21356;-72
2022/08/10 03:02:18;;;;;;;2.13;1.92;;;17.70;47.70;;;;;;4979951;28;20121;-72
2022/08/10 03:04:45;;;;;;;5.30;2.10;;;17.70;47.90;;;;;;4983738;28;20042;-72
2022/08/10 03:07:13;;;;;;;4.03;1.80;;;17.70;48.10;;;;;;4985123;28;20708;-73
2022/08/10 03:09:39;;;;;;;3.60;1.65;;;17.70;48.20;;;;;;5000603;28;20045;-71
2022/08/10 03:12:06;;;;;;;3.10;2.08;;;17.60;48.30;;;;;;4996014;28;20091;-73
2022/08/10 03:14:32;;;;;;;1.83;1.73;;;17.60;48.50;;;;;;4993227;28;20030;-73
2022/08/10 03:16:57;;;;;;;2.88;1.85;;;17.60;48.70;;;;;;4974966;28;20050;-73
2022/08/10 03:19:23;;;;;;;2.40;1.90;;;17.60;48.70;;;;;;4990936;28;20125;-72
2022/08/10 03:21:48;;;;;;;2.60;1.85;;;17.50;48.80;;;;;;4994335;28;20057;-73
2022/08/10 03:24:14;;;;;;;2.22;1.75;;;17.50;49.00;;;;;;4993137;28;20490;-72
2022/08/10 03:26:40;;;;;;;2.70;1.95;;;17.50;49.10;;;;;;4964004;28;20056;-73
2022/08/10 03:29:06;;;;;;;3.13;1.85;;;17.50;49.10;;;;;;4997386;28;20678;-72
2022/08/10 03:31:31;;;;;;;2.83;1.77;;;17.40;49.10;;;;;;4990605;28;20816;-73
2022/08/10 03:33:58;;;;;;;2.58;1.88;;;17.40;49.30;;;;;;4998366;28;20054;-73
2022/08/10 03:36:23;;;;;;;3.72;2.38;;;17.40;49.40;;;;;;4993884;28;20038;-72
2022/08/10 03:38:52;;;;;;;2.00;1.80;;;17.30;49.40;;;;;;4993200;28;20585;-72
2022/08/10 03:41:26;;;;;;;3.75;1.90;;;17.30;49.50;;;;;;4984176;28;20038;-73
2022/08/10 03:43:51;;;;;;;2.47;1.90;;;17.30;49.60;;;;;;4979265;28;20275;-73
2022/08/10 03:46:18;;;;;;;3.47;1.90;;;17.20;49.70;;;;;;5010982;28;20503;-73
2022/08/10 03:48:44;;;;;;;4.30;2.10;;;17.20;49.70;;;;;;4993783;28;20109;-72
2022/08/10 03:51:10;;;;;;;2.38;2.10;;;17.20;49.70;;;;;;4980427;28;20037;-72
2022/08/10 03:53:35;;;;;;;2.45;2.03;;;17.20;49.80;;;;;;4997261;28;20034;-73
2022/08/10 03:56:01;;;;;;;2.75;1.92;;;17.10;49.80;;;;;;4996085;28;20030;-73
2022/08/10 03:58:26;;;;;;;3.22;1.80;;;17.10;50.00;;;;;;4997178;28;20038;-73
2022/08/10 04:00:52;;;;;;;3.65;2.22;;;17.10;50.10;;;;;;4991293;28;20387;-72
2022/08/10 04:03:17;;;;;;;5.85;2.10;;;17.10;50.20;;;;;;4998861;28;20029;-72
2022/08/10 04:05:43;;;;;;;3.17;2.10;;;17.10;50.30;;;;;;4999225;28;20030;-72
2022/08/10 04:08:09;;;;;;;3.00;1.80;;;17.00;50.30;;;;;;4983270;28;20049;-73
2022/08/10 04:10:34;;;;;;;2.28;2.08;;;17.00;50.40;;;;;;4986147;28;20145;-72
2022/08/10 04:13:00;;;;;;;2.17;1.90;;;17.00;50.60;;;;;;4982278;28;20128;-72
2022/08/10 04:15:25;;;;;;;2.60;2.05;;;16.90;50.50;;;;;;4998588;28;20034;-71
2022/08/10 04:17:51;;;;;;;2.20;1.80;;;16.90;50.70;;;;;;4981753;28;20049;-72
2022/08/10 04:20:19;;;;;;;2.35;2.15;;;16.90;50.70;;;;;;5001862;28;20041;-72
2022/08/10 04:22:49;;;;;;;4.00;1.98;;;16.90;50.90;;;;;;4984018;28;20038;-72
2022/08/10 04:25:15;;;;;;;2.47;2.05;;;16.80;50.80;;;;;;5001011;28;20037;-72
2022/08/10 04:27:41;;;;;;;4.65;2.60;;;16.80;50.90;;;;;;5001145;28;20134;-72
2022/08/10 04:30:07;;;;;;;3.60;2.05;;;16.80;51.10;;;;;;5001277;28;20037;-71
2022/08/10 04:32:33;;;;;;;3.10;2.17;;;16.80;51.20;;;;;;5000924;28;20034;-72
2022/08/10 04:34:58;;;;;;;2.72;2.08;;;16.80;51.30;;;;;;5002521;28;20137;-73
2022/08/10 04:37:24;;;;;;;6.40;1.85;;;16.70;51.30;;;;;;4985695;28;20660;-73
2022/08/10 04:39:49;;;;;;;2.13;2.00;;;16.70;51.50;;;;;;4998537;28;20053;-73
2022/08/10 04:42:15;;;;;;;2.10;1.70;;;16.70;51.50;;;;;;4974937;28;20830;-73
2022/08/10 04:44:41;;;;;;;3.95;2.28;;;16.70;51.60;;;;;;4983485;28;20577;-73
2022/08/10 04:47:06;;;;;;;2.90;2.00;;;16.70;51.70;;;;;;4965719;28;20862;-73
2022/08/10 04:49:32;;;;;;;3.38;1.88;;;16.70;51.80;;;;;;4982167;28;20042;-73
2022/08/10 04:51:57;;;;;;;3.92;2.42;;;16.60;51.80;;;;;;4951022;28;20038;-73
2022/08/10 04:54:24;;;;;;;5.18;2.28;;;16.60;51.90;;;;;;4981880;28;20117;-72
2022/08/10 04:56:49;;;;;;;3.53;1.90;;;16.60;52.10;;;;;;4982248;28;20039;-73
2022/08/10 04:59:15;;;;;;;3.40;2.47;;;16.60;52.10;;;;;;4982434;28;20706;-72
2022/08/10 05:01:40;;;;;;;2.28;2.08;;;16.60;52.20;;;;;;4981003;28;20039;-73
2022/08/10 05:04:06;;;;;;;2.78;2.15;;;16.60;52.20;;;;;;4980227;28;20039;-73
2022/08/10 05:06:32;;;;;;;3.55;2.00;;;16.60;53.10;;;;;;4976011;28;20033;-73
2022/08/10 05:08:58;;;;;;;2.53;1.92;;;16.60;52.50;;;;;;4982145;28;20084;-72
2022/08/10 05:11:23;;;;;;;2.05;1.70;;;16.60;52.60;;;;;;4982679;28;20645;-72
2022/08/10 05:13:49;;;;;;;2.58;2.20;;;16.60;52.60;;;;;;4981323;28;20039;-73
2022/08/10 05:16:14;;;;;;;5.00;2.45;;;16.60;52.80;;;;;;4983613;28;20043;-72
2022/08/10 05:18:40;;;;;;;3.85;2.53;;;16.60;53.10;;;;;;4984229;28;20038;-73
2022/08/10 05:21:06;;;;;;;3.88;2.20;;;16.60;53.00;;;;;;4981844;28;20031;-72
2022/08/10 05:23:31;;;;;;;7.25;2.42;;;16.60;53.10;;;;;;4983362;28;20034;-73
2022/08/10 05:25:57;;;;;;;2.55;2.35;;;16.60;53.20;;;;;;4980721;28;20037;-71
2022/08/10 05:28:22;;;;;;;2.88;2.40;;;16.60;53.20;;;;;;4979578;28;20065;-72
2022/08/10 05:30:48;;;;;;;3.15;2.42;;;16.60;53.30;;;;;;4966885;28;20038;-72
2022/08/10 05:33:13;;;;;;;2.67;2.30;;;16.60;53.40;;;;;;4964444;28;20145;-72
2022/08/10 05:35:39;;;;;;;10.23;2.95;;;16.70;53.60;;;;;;4980855;28;20046;-72
2022/08/10 05:38:04;;;;;;;11.15;2.80;;;16.70;53.80;;;;;;4964229;28;20034;-71
2022/08/10 05:40:30;;;;;;;7.18;2.75;;;16.70;53.90;;;;;;4963718;28;20130;-70
2022/08/10 05:42:56;;;;;;;12.07;3.60;;;16.80;53.80;;;;;;4962191;28;20530;-72
2022/08/10 05:45:24;;;;;;;5.68;2.53;;;16.80;53.90;;;;;;4980054;28;20042;-72
2022/08/10 05:47:50;;;;;;;7.45;2.67;;;16.80;54.00;;;;;;4976194;28;20053;-73
2022/08/10 05:50:16;;;;;;;8.63;2.85;;;16.90;53.90;;;;;;4957350;28;20131;-73
2022/08/10 05:52:41;;;;;;;6.75;3.08;;;16.90;54.00;;;;;;4961948;28;20123;-73
2022/08/10 05:55:07;;;;;;;7.93;2.70;;;17.00;54.20;;;;;;4966323;28;20034;-72
2022/08/10 05:57:35;;;;;;;6.68;2.70;;;17.10;54.30;;;;;;4966171;28;20042;-72
2022/08/10 06:00:03;;;;;;;12.02;3.38;;;17.10;55.10;;;;;;4976157;28;20081;-74
2022/08/10 06:02:35;;;;;;;13.43;2.70;;;17.20;54.70;;;;;;4959078;28;21190;-72
2022/08/10 06:05:14;;;;;;;9.30;3.33;;;17.30;55.00;;;;;;4979340;28;20043;-73
2022/08/10 06:07:45;;;;;;;9.73;3.10;;;17.40;55.30;;;;;;4966487;28;20042;-72
2022/08/10 06:10:12;;;;;;;7.40;3.33;;;17.40;54.70;;;;;;4979863;28;20118;-72
2022/08/10 06:12:38;;;;;;;6.53;3.08;;;17.50;54.60;;;;;;4957666;28;20042;-74
2022/08/10 06:15:04;;;;;;;9.60;3.22;;;17.60;54.70;;;;;;4960421;28;20053;-72
2022/08/10 06:17:29;;;;;;;7.97;2.92;;;17.70;54.70;;;;;;4963769;28;20054;-73
2022/08/10 06:19:56;;;;;;;10.75;2.58;;;17.80;54.50;;;;;;4977104;28;20043;-73
2022/08/10 06:22:22;;;;;;;7.75;2.90;;;17.90;54.50;;;;;;4946450;28;20516;-72
2022/08/10 06:24:48;;;;;;;9.60;2.60;;;18.00;54.40;;;;;;4945043;28;20042;-72
2022/08/10 06:27:14;;;;;;;14.63;2.55;;;18.20;54.20;;;;;;4973540;28;20034;-72
2022/08/10 06:29:40;;;;;;;2.80;2.50;;;18.30;54.10;;;;;;4955481;28;20105;-72
2022/08/10 06:32:06;;;;;;;9.20;2.85;;;18.40;53.80;;;;;;4942696;28;20252;-72
2022/08/10 06:34:34;;;;;;;8.20;2.80;;;18.50;53.50;;;;;;4923517;28;20038;-72
2022/08/10 06:37:03;;;;;;;6.85;2.67;;;18.70;53.40;;;;;;4945390;28;20038;-72
2022/08/10 06:39:29;;;;;;;3.85;2.30;;;18.80;53.30;;;;;;4938217;28;20073;-72
2022/08/10 06:42:00;;;;;;;8.85;2.90;;;19.00;53.00;;;;;;4944007;28;20053;-74
2022/08/10 06:44:28;;;;;;;7.47;2.23;;;19.10;52.70;;;;;;4984164;28;20038;-72
2022/08/10 06:46:54;;;;;;;8.88;2.55;;;19.20;52.50;;;;;;4996567;28;20057;-72
2022/08/10 06:49:21;;;;;;;9.75;3.35;;;19.40;52.30;;;;;;4978519;28;20038;-72
2022/08/10 06:51:46;;;;;;;3.28;2.30;;;19.60;52.10;;;;;;4998659;28;20064;-72
2022/08/10 06:54:12;;;;;;;10.32;2.90;;;19.70;51.80;;;;;;4980282;28;20502;-72
2022/08/10 06:56:43;;;;;;;5.07;2.33;;;19.90;51.60;;;;;;4997058;28;20035;-72
2022/08/10 06:59:18;;;;;;;4.63;2.15;;;20.10;51.40;;;;;;4982409;28;20041;-72
2022/08/10 07:01:44;;;;;;;6.72;1.95;;;20.20;51.20;;;;;;4985101;28;20060;-72
2022/08/10 07:04:29;;;;;;;6.45;3.00;;;20.40;50.80;;;;;;4998127;28;20034;-71
2022/08/10 07:06:55;;;;;;;8.30;2.47;;;20.60;50.60;;;;;;4976981;28;20057;-71
2022/08/10 07:09:21;;;;;;;9.25;2.60;;;20.80;50.20;;;;;;4940803;28;20594;-71
2022/08/10 07:11:47;;;;;;;4.68;2.15;;;21.00;50.00;;;;;;4993834;28;20180;-71
2022/08/10 07:14:12;;;;;;;3.08;1.95;;;21.20;49.70;;;;;;4996369;28;20034;-71
2022/08/10 07:17:00;;;;;;;7.65;2.17;;;21.30;49.40;;;;;;4977360;28;20030;-72
2022/08/10 07:19:25;;;;;;;5.30;2.15;;;21.50;49.20;;;;;;4981417;28;20073;-71
2022/08/10 07:21:50;;;;;;;7.15;2.50;;;21.70;48.80;;;;;;4962711;28;20502;-72
2022/08/10 07:24:16;;;;;;;4.68;2.40;;;21.90;48.60;;;;;;4993845;28;20061;-71
2022/08/10 07:26:47;;;;;;;5.28;2.10;;;22.00;48.30;;;;;;4980077;28;20130;-71
2022/08/10 07:29:13;;;;;;;6.55;2.60;;;22.20;47.90;;;;;;4979133;28;20164;-72
2022/08/10 07:31:38;;;;;;;4.20;1.55;;;22.40;47.70;;;;;;4995956;28;20041;-71
2022/08/10 07:34:06;;;;;;;5.63;2.03;;;22.50;47.40;;;;;;4963249;28;20053;-71
2022/08/10 07:36:32;;;;;;;6.32;2.22;;;22.70;47.00;;;;;;4983323;28;20038;-71
2022/08/10 07:38:58;;;;;;;6.68;2.10;;;22.90;46.80;;;;;;4995154;28;20120;-71
2022/08/10 07:41:24;;;;;;;2.22;1.77;;;23.00;46.50;;;;;;4982224;28;20054;-72
2022/08/10 07:43:50;;;;;;;5.32;1.92;;;23.20;46.20;;;;;;4956079;28;20682;-74
2022/08/10 07:46:16;;;;;;;2.60;1.80;;;23.40;45.90;;;;;;4971860;28;20725;-73
2022/08/10 07:48:49;;;;;;;2.70;1.52;;;23.60;45.60;;;;;;4974811;28;20112;-72
2022/08/10 07:51:17;;;;;;;5.35;1.90;;;23.80;45.00;;;;;;4960161;28;20054;-73
2022/08/10 07:53:44;;;;;;;1.98;1.52;;;24.00;44.80;;;;;;4941324;28;20054;-73
2022/08/10 07:56:10;;;;;;;3.40;1.80;;;24.20;44.60;;;;;;4963217;28;20199;-74
2022/08/10 07:58:43;;;;;;;6.05;1.77;;;24.40;45.10;;;;;;4965688;28;20654;-73
2022/08/10 08:01:09;;;;;;;3.38;1.80;;;24.60;44.00;;;;;;4965165;28;20046;-73
2022/08/10 08:03:34;;;;;;;6.57;1.70;;;24.80;43.70;;;;;;4961806;28;20134;-72
2022/08/10 08:06:00;;;;;;;1.63;1.50;;;25.00;43.40;;;;;;4963634;28;20496;-72
2022/08/10 08:08:26;;;;;;;2.63;1.42;;;25.20;43.00;;;;;;4961718;28;20034;-72
2022/08/10 08:10:52;;;;;;;2.22;1.45;;;25.40;42.80;;;;;;4975853;28;20587;-73
2022/08/10 08:13:17;;;;;;;4.07;1.67;;;25.60;42.50;;;;;;4977210;28;20042;-73
2022/08/10 08:15:43;;;;;;;2.80;1.38;;;25.80;42.10;;;;;;4950004;28;20102;-73
2022/08/10 08:18:08;;;;;;;3.58;1.90;;;26.00;41.80;;;;;;4979633;28;20561;-72
2022/08/10 08:20:34;;;;;;;1.85;1.65;;;26.20;41.50;;;;;;4965740;28;20122;-73
2022/08/10 08:22:59;;;;;;;2.63;1.92;;;26.40;41.30;;;;;;4963827;28;20085;-73
2022/08/10 08:25:25;;;;;;;1.90;1.20;;;26.60;41.00;;;;;;4963658;28;20112;-73
2022/08/10 08:27:54;;;;;;;2.33;1.63;;;26.70;40.60;;;;;;4964121;28;20123;-73
2022/08/10 08:30:21;;;;;;;1.83;1.30;;;27.00;40.30;;;;;;4969246;28;20065;-73
2022/08/10 08:32:47;;;;;;;1.42;1.10;;;27.10;39.90;;;;;;4968707;28;20617;-73
2022/08/10 08:35:15;;;;;;;1.58;1.30;;;27.30;39.50;;;;;;4964441;28;20243;-72
2022/08/10 08:37:41;;;;;;;2.28;1.50;;;27.40;39.30;;;;;;4986726;28;20103;-73
2022/08/10 08:40:09;;;;;;;3.40;1.50;;;27.60;39.00;;;;;;4964492;28;20053;-73
2022/08/10 08:43:08;;;;;;;2.42;1.50;;;27.80;38.80;;;;;;4991223;28;20504;-73
2022/08/10 08:45:39;;;;;;;3.25;1.35;;;28.10;38.30;;;;;;4987087;28;20507;-73
2022/08/10 08:48:23;;;;;;;3.22;1.13;;;28.30;38.30;;;;;;4989325;28;20053;-74
2022/08/10 08:51:07;;;;;;;1.85;0.88;;;28.40;37.60;;;;;;4994658;28;20064;-72
2022/08/10 08:54:11;;;;;;;2.47;1.08;;;28.70;37.00;;;;;;5003998;28;20038;-73
2022/08/10 08:56:45;;;;;;;1.90;1.27;;;28.90;36.80;;;;;;5002790;28;20034;-73
2022/08/10 08:59:35;;;;;;;2.00;1.10;;;29.10;36.80;;;;;;5004667;28;20062;-73
2022/08/10 09:02:34;;;;;;;1.45;1.10;;;29.30;36.10;;;;;;5004731;28;20038;-73
2022/08/10 09:05:23;;;;;;;4.45;1.40;;;29.50;36.20;;;;;;4965625;28;20023;-74
2022/08/10 09:08:07;;;;;;;2.67;1.10;;;29.70;35.60;;;;;;4965445;28;20045;-74
2022/08/10 09:10:49;;;;;;;2.00;1.42;;;29.80;35.70;;;;;;5006742;28;20038;-72
2022/08/10 09:13:40;;;;;;;1.52;1.10;;;30.00;35.10;;;;;;4986748;28;20041;-74
2022/08/10 09:16:14;;;;;;;2.20;1.15;;;30.20;34.40;;;;;;4969454;28;20092;-73
2022/08/10 09:18:55;;;;;;;2.30;1.00;;;30.30;34.30;;;;;;4998884;28;20815;-73
2022/08/10 09:21:46;;;;;;;6.88;1.73;;;30.40;33.90;;;;;;5002377;28;20073;-74
2022/08/10 09:24:28;;;;;;;1.52;1.35;;;30.50;33.50;;;;;;5002881;28;20033;-73
2022/08/10 09:26:55;;;;;;;1.63;1.40;;;30.70;33.40;;;;;;5005908;28;20137;-73
2022/08/10 09:29:28;;;;;;;4.50;1.30;;;30.80;33.20;;;;;;5020310;28;20100;-74
2022/08/10 09:32:10;;;;;;;5.55;1.35;;;31.00;32.70;;;;;;5004642;28;20121;-74
2022/08/10 09:34:48;;;;;;;1.63;1.20;;;31.10;31.80;;;;;;4993673;28;20034;-73
2022/08/10 09:37:23;;;;;;;2.75;1.33;;;31.20;32.20;;;;;;4999501;28;20499;-72
2022/08/10 09:39:58;;;;;;;3.97;1.27;;;31.40;31.40;;;;;;4938539;28;20426;-72
2022/08/10 09:42:31;;;;;;;6.03;1.48;;;31.50;31.40;;;;;;4982474;28;20044;-72
2022/08/10 09:45:11;;;;;;;1.25;1.10;;;31.60;31.20;;;;;;4994856;28;20455;-71
2022/08/10 09:48:15;;;;;;;6.45;1.55;;;31.70;31.00;;;;;;4972284;28;20756;-73
2022/08/10 09:50:55;;;;;;;4.47;1.20;;;31.80;30.10;;;;;;4973868;28;20038;-74
2022/08/10 09:53:52;;;;;;;4.50;1.40;;;31.90;30.40;;;;;;5001782;28;20031;-74
2022/08/10 09:57:01;;;;;;;3.40;1.15;;;32.00;29.90;;;;;;5002894;28;20034;-74
2022/08/10 09:59:46;;;;;;;2.67;1.25;;;32.10;29.40;;;;;;4961122;28;20041;-73
2022/08/10 10:02:38;;;;;;;1.63;1.25;;;32.10;29.40;;;;;;4968722;28;20829;-73
2022/08/10 10:05:20;;;;;;;2.45;1.25;;;32.10;29.30;;;;;;4984353;28;20109;-75
2022/08/10 10:08:08;;;;;;;7.45;1.48;;;32.20;29.40;;;;;;4971171;28;20061;-74
2022/08/10 10:11:04;;;;;;;1.45;1.20;;;32.40;29.30;;;;;;4989270;28;20034;-76
2022/08/10 10:13:54;;;;;;;2.80;1.52;;;32.60;29.00;;;;;;4943415;28;20592;-74
2022/08/10 10:16:31;;;;;;;4.00;1.13;;;32.70;29.00;;;;;;5002272;28;20048;-75
2022/08/10 10:19:03;;;;;;;3.05;1.35;;;32.70;29.00;;;;;;5006816;28;20053;-73
2022/08/10 10:21:45;;;;;;;10.52;2.08;;;32.80;28.70;;;;;;5004113;28;20129;-74
2022/08/10 10:24:15;;;;;;;4.03;1.23;;;32.90;28.50;;;;;;4989517;28;20034;-74
2022/08/10 10:27:08;;;;;;;1.60;1.10;;;33.00;28.50;;;;;;5005224;28;20080;-74
2022/08/10 10:30:01;;;;;;;4.13;1.00;;;33.20;28.20;;;;;;5002988;28;20037;-73
2022/08/10 10:32:57;;;;;;;1.52;1.20;;;33.20;27.60;;;;;;5005862;28;20062;-74
2022/08/10 10:35:37;;;;;;;2.60;1.40;;;33.20;27.60;;;;;;5005776;28;20475;-72
2022/08/10 10:38:05;;;;;;;2.97;1.50;;;33.30;28.00;;;;;;4988784;28;20029;-74
2022/08/10 10:40:44;;;;;;;1.92;1.23;;;33.40;27.80;;;;;;5002473;28;20037;-73
2022/08/10 10:43:21;;;;;;;1.48;1.10;;;33.40;27.60;;;;;;4989349;28;20050;-75
2022/08/10 10:46:05;;;;;;;4.90;1.10;;;33.50;27.10;;;;;;5000359;28;20058;-74
2022/08/10 10:48:56;;;;;;;1.20;1.08;;;33.60;26.90;;;;;;5002880;28;20673;-75
2022/08/10 10:51:33;;;;;;;2.58;1.20;;;33.60;26.60;;;;;;4996047;28;20421;-74
2022/08/10 10:54:14;;;;;;;1.65;1.00;;;33.70;26.80;;;;;;4998760;28;20049;-73
2022/08/10 10:56:45;;;;;;;;;;;33.90;26.50;;;;;;4985387;28;20393;-74
2022/08/10 10:59:36;;;;;;;2.42;1.10;;;34.10;27.00;;;;;;5005718;28;19921;-75
2022/08/10 11:02:23;;;;;;;3.17;1.33;;;34.20;26.30;;;;;;4987936;28;20503;-74
2022/08/10 11:05:06;;;;;;;1.10;0.80;;;34.30;26.20;;;;;;5007587;28;20065;-74
2022/08/10 11:07:42;;;;;;;1.25;1.02;;;34.40;26.40;;;;;;4986925;28;20077;-74
2022/08/10 11:10:14;;;;;;;3.70;1.00;;;34.50;26.30;;;;;;5001820;28;20076;-73
2022/08/10 11:13:00;;;;;;;3.08;1.25;;;34.70;26.10;;;;;;4997285;28;20057;-74
2022/08/10 11:15:35;;;;;;;2.47;1.10;;;34.80;26.00;;;;;;4989251;28;20750;-73
2022/08/10 11:18:32;;;;;;;1.55;1.00;;;34.80;25.80;;;;;;4984869;28;20048;-74
2022/08/10 11:21:14;;;;;;;3.08;1.20;;;34.90;25.90;;;;;;4962378;28;20037;-73
2022/08/10 11:23:49;;;;;;;1.85;1.30;;;35.00;25.30;;;;;;4969324;28;20049;-72
2022/08/10 11:26:30;;;;;;;1.52;1.08;;;35.10;25.60;;;;;;4984266;28;20058;-73
2022/08/10 11:29:18;;;;;;;1.20;1.10;;;35.30;25.50;;;;;;4995566;28;20047;-73
2022/08/10 11:31:54;;;;;;;1.27;1.17;;;35.40;25.00;;;;;;4980288;28;20101;-73
2022/08/10 11:34:31;;;;;;;1.27;0.90;;;35.50;25.30;;;;;;4958989;28;20562;-74
2022/08/10 11:37:23;;;;;;;2.80;1.10;;;35.60;25.20;;;;;;4982360;28;20506;-72
2022/08/10 11:39:56;;;;;;;1.45;1.08;;;35.70;24.80;;;;;;4997706;28;20045;-73
2022/08/10 11:42:42;;;;;;;2.45;1.30;;;35.60;24.70;;;;;;4979240;28;20130;-73
2022/08/10 11:45:09;;;;;;;3.10;1.45;;;35.60;24.30;;;;;;4994928;28;20034;-73
2022/08/10 11:47:47;;;;;;;3.47;1.10;;;35.60;24.80;;;;;;4998281;28;20056;-74
2022/08/10 11:50:31;;;;;;;3.20;1.40;;;35.70;24.30;;;;;;5000846;28;20037;-73
2022/08/10 11:53:20;;;;;;;3.38;1.20;;;35.80;24.40;;;;;;4998702;28;20137;-73
2022/08/10 11:55:51;;;;;;;3.20;1.25;;;35.90;24.10;;;;;;4997600;28;20117;-73
2022/08/10 12:01:05;;;;;;;6.25;1.20;;;36.10;24.40;;;;;;4998931;28;20045;-73
2022/08/10 12:03:31;;;;;;;2.63;1.08;;;36.00;24.20;;;;;;4995883;28;20045;-73
2022/08/10 12:05:56;;;;;;;1.05;0.95;;;36.10;24.30;;;;;;4997313;28;20049;-73
2022/08/10 12:08:24;;;;;;;2.03;1.30;;;36.10;24.10;;;;;;4983157;28;20064;-73
2022/08/10 12:10:49;;;;;;;5.78;1.25;;;36.20;23.90;;;;;;4998278;28;20739;-73
2022/08/10 12:13:21;;;;;;;1.73;1.00;;;36.20;23.70;;;;;;4999912;28;20916;-74
2022/08/10 12:15:57;;;;;;;1.90;1.10;;;36.10;23.60;;;;;;4986975;28;20034;-73
2022/08/10 12:18:44;;;;;;;1.20;1.02;;;36.10;23.50;;;;;;4992937;28;20047;-74
2022/08/10 12:21:13;;;;;;;3.92;1.75;;;36.20;23.40;;;;;;5004572;28;20042;-75
2022/08/10 12:24:01;;;;;;;1.40;0.95;;;36.30;23.70;;;;;;5004475;28;20073;-74
2022/08/10 12:26:37;;;;;;;2.88;1.25;;;36.30;23.00;;;;;;5001763;28;20113;-73
2022/08/10 12:29:09;;;;;;;1.10;1.00;;;36.30;23.20;;;;;;4998280;28;20034;-73
2022/08/10 12:31:42;;;;;;;2.33;1.30;;;36.30;23.30;;;;;;4985743;28;20077;-73
2022/08/10 12:34:30;;;;;;;2.50;1.00;;;36.40;23.30;;;;;;4960229;28;20081;-73
2022/08/10 12:37:10;;;;;;;1.95;0.98;;;36.50;23.40;;;;;;4962826;28;20042;-74
2022/08/10 12:39:49;;;;;;;5.00;1.05;;;36.60;23.40;;;;;;5004673;28;20029;-75
2022/08/10 12:42:18;;;;;;;3.45;1.20;;;36.80;23.30;;;;;;4979947;28;20142;-75
2022/08/10 12:44:57;;;;;;;1.50;0.82;;;36.90;23.30;;;;;;5007807;28;20104;-73
2022/08/10 12:48:00;;;;;;;4.15;1.58;;;37.10;23.00;;;;;;4977516;28;20069;-73
2022/08/10 12:50:42;;;;;;;1.85;1.08;;;37.00;22.70;;;;;;5000632;28;20734;-74
2022/08/10 12:53:22;;;;;;;2.30;1.40;;;37.00;22.80;;;;;;5001447;28;20041;-74
2022/08/10 12:55:48;;;;;;;2.45;1.10;;;37.00;22.80;;;;;;5005558;28;20033;-74
2022/08/10 12:58:14;;;;;;;2.80;1.20;;;37.00;22.90;;;;;;4988786;28;20042;-73
2022/08/10 13:00:41;;;;;;;3.28;1.42;;;37.10;22.90;;;;;;5001561;28;20030;-73
2022/08/10 13:03:07;;;;;;;5.00;1.30;;;37.20;22.80;;;;;;5001145;28;20058;-75
2022/08/10 13:05:33;;;;;;;6.60;1.52;;;37.30;22.70;;;;;;5002870;28;20095;-73
2022/08/10 18:27:09;;;;;;;1.77;1.63;;;29.80;26.10;;;;;;4987995;28;20049;-74
2022/08/10 18:29:37;;;;;;;1.83;1.63;;;29.70;26.10;;;;;;4982343;28;20034;-75
2022/08/10 18:32:03;;;;;;;2.03;1.50;;;29.60;26.50;;;;;;4975516;28;20419;-74
2022/08/10 18:34:30;;;;;;;8.25;1.63;;;29.50;26.40;;;;;;5007689;28;20491;-75
2022/08/10 18:36:55;;;;;;;3.28;1.70;;;29.40;26.60;;;;;;4992621;28;20065;-75